createdAt,value
2018-04-29T00:00:49.996Z,8.00
2018-04-29T00:01:48.898Z,8.00
2018-04-29T00:02:50.946Z,7.99
2018-04-29T00:03:48.839Z,7.99
2018-04-29T00:04:49.912Z,7.99
2018-04-29T00:05:48.819Z,7.99
2018-04-29T00:06:49.829Z,7.99
2018-04-29T00:07:48.748Z,7.99
2018-04-29T00:08:48.817Z,7.99
2018-04-29T00:09:48.709Z,7.99
2018-04-29T00:10:48.732Z,7.99
2018-04-29T00:11:48.637Z,7.99
2018-04-29T00:12:48.636Z,7.99
2018-04-29T00:13:48.601Z,7.99
2018-04-29T00:14:50.588Z,7.99
2018-04-29T00:15:48.549Z,7.99
2018-04-29T00:16:48.570Z,7.99
2018-04-29T00:17:48.492Z,7.99
2018-04-29T00:18:48.576Z,7.99
2018-04-29T00:19:48.456Z,7.99
2018-04-29T00:20:48.490Z,7.99
2018-04-29T00:21:48.382Z,7.99
2018-04-29T00:22:48.395Z,7.99
2018-04-29T00:23:48.342Z,7.99
2018-04-29T00:24:49.330Z,7.99
2018-04-29T00:25:48.312Z,7.99
2018-04-29T00:26:48.325Z,7.99
2018-04-29T00:27:48.266Z,7.99
2018-04-29T00:28:48.343Z,7.99
2018-04-29T00:29:48.210Z,7.99
2018-04-29T00:30:48.247Z,7.99
2018-04-29T00:31:48.145Z,7.99
2018-04-29T00:32:49.202Z,7.99
2018-04-29T00:33:48.099Z,7.99
2018-04-29T00:34:48.176Z,7.99
2018-04-29T00:35:48.038Z,7.99
2018-04-29T00:36:48.080Z,7.99
2018-04-29T00:37:48.010Z,7.99
2018-04-29T00:38:47.994Z,7.99
2018-04-29T00:39:47.948Z,7.99
2018-04-29T00:40:48.017Z,7.99
2018-04-29T00:41:47.915Z,7.99
2018-04-29T00:42:47.933Z,7.99
2018-04-29T00:43:47.865Z,7.99
2018-04-29T00:44:47.938Z,7.99
2018-04-29T00:45:47.816Z,7.99
2018-04-29T00:46:52.555Z,7.99
2018-04-29T00:47:47.749Z,7.99
2018-04-29T00:48:47.760Z,7.99
2018-04-29T00:49:47.711Z,7.99
2018-04-29T00:50:47.778Z,7.99
2018-04-29T00:51:47.656Z,7.99
2018-04-29T00:52:47.702Z,7.98
2018-04-29T00:53:47.612Z,7.98
2018-04-29T00:54:49.647Z,7.99
2018-04-29T00:55:47.580Z,7.98
2018-04-29T00:56:47.608Z,7.99
2018-04-29T00:57:47.512Z,7.98
2018-04-29T00:58:47.525Z,7.99
2018-04-29T00:59:47.464Z,7.99
2018-04-29T01:00:47.604Z,7.98
2018-04-29T01:01:47.428Z,7.98
2018-04-29T01:02:48.472Z,7.98
2018-04-29T01:03:47.341Z,7.99
2018-04-29T01:04:47.360Z,7.98
2018-04-29T01:05:47.304Z,7.99
2018-04-29T01:06:47.403Z,7.99
2018-04-29T01:07:47.262Z,7.98
2018-04-29T01:08:47.276Z,7.98
2018-04-29T01:09:47.223Z,7.99
2018-04-29T01:10:47.203Z,7.99
2018-04-29T01:11:47.162Z,7.98
2018-04-29T01:12:47.210Z,7.98
2018-04-29T01:13:47.105Z,7.98
2018-04-29T01:14:48.134Z,7.98
2018-04-29T01:15:47.060Z,7.99
2018-04-29T01:16:47.139Z,7.98
2018-04-29T01:17:47.016Z,7.98
2018-04-29T01:18:47.045Z,7.98
2018-04-29T01:19:46.954Z,7.98
2018-04-29T01:20:48.004Z,7.98
2018-04-29T01:21:46.908Z,7.98
2018-04-29T01:22:49.026Z,7.98
2018-04-29T01:23:46.854Z,7.98
2018-04-29T01:24:46.878Z,7.98
2018-04-29T01:25:46.816Z,7.98
2018-04-29T01:26:46.887Z,7.98
2018-04-29T01:27:46.753Z,7.98
2018-04-29T01:28:46.813Z,7.98
2018-04-29T01:29:46.716Z,7.98
2018-04-29T01:30:46.713Z,7.98
2018-04-29T01:31:46.673Z,7.98
2018-04-29T01:32:46.737Z,7.98
2018-04-29T01:33:46.604Z,7.98
2018-04-29T01:34:46.634Z,7.98
2018-04-29T01:35:46.552Z,7.98
2018-04-29T01:36:46.556Z,7.98
2018-04-29T01:37:46.511Z,7.98
2018-04-29T01:38:46.557Z,7.98
2018-04-29T01:39:46.466Z,7.98
2018-04-29T01:40:46.467Z,7.97
2018-04-29T01:41:46.406Z,7.98
2018-04-29T01:42:46.525Z,7.98
2018-04-29T01:43:46.354Z,7.98
2018-04-29T01:44:46.402Z,7.98
2018-04-29T01:45:46.314Z,7.98
2018-04-29T01:46:46.307Z,7.98
2018-04-29T01:47:46.259Z,7.98
2018-04-29T01:48:46.331Z,7.98
2018-04-29T01:49:46.197Z,7.98
2018-04-29T01:50:46.253Z,7.97
2018-04-29T01:51:46.159Z,7.97
2018-04-29T01:52:46.291Z,7.97
2018-04-29T01:53:46.112Z,7.98
2018-04-29T01:54:47.190Z,7.97
2018-04-29T01:55:46.066Z,7.97
2018-04-29T01:56:46.078Z,7.97
2018-04-29T01:57:46.026Z,7.97
2018-04-29T01:58:46.078Z,7.98
2018-04-29T01:59:45.994Z,7.97
2018-04-29T02:00:46.001Z,7.98
2018-04-29T02:01:45.925Z,7.98
2018-04-29T02:02:45.926Z,7.97
2018-04-29T02:03:45.866Z,7.98
2018-04-29T02:04:45.938Z,7.97
2018-04-29T02:05:45.805Z,7.97
2018-04-29T02:06:47.896Z,7.98
2018-04-29T02:07:45.773Z,7.98
2018-04-29T02:08:45.844Z,7.97
2018-04-29T02:09:45.714Z,7.97
2018-04-29T02:10:45.779Z,7.97
2018-04-29T02:11:45.673Z,7.97
2018-04-29T02:12:45.681Z,7.97
2018-04-29T02:13:45.617Z,7.97
2018-04-29T02:14:46.609Z,7.97
2018-04-29T02:15:45.561Z,7.97
2018-04-29T02:16:45.558Z,7.97
2018-04-29T02:17:45.509Z,7.97
2018-04-29T02:18:45.619Z,7.97
2018-04-29T02:19:45.455Z,7.97
2018-04-29T02:20:45.481Z,7.97
2018-04-29T02:21:45.391Z,7.97
2018-04-29T02:22:45.406Z,7.97
2018-04-29T02:23:45.358Z,7.97
2018-04-29T02:24:45.406Z,7.97
2018-04-29T02:25:45.317Z,7.97
2018-04-29T02:26:45.325Z,7.97
2018-04-29T02:27:45.261Z,7.97
2018-04-29T02:28:45.334Z,7.97
2018-04-29T02:29:45.198Z,7.97
2018-04-29T02:30:46.270Z,7.97
2018-04-29T02:31:45.147Z,7.97
2018-04-29T02:32:45.148Z,7.97
2018-04-29T02:33:45.108Z,7.97
2018-04-29T02:34:45.162Z,7.97
2018-04-29T02:35:45.075Z,7.97
2018-04-29T02:36:45.109Z,7.97
2018-04-29T02:37:45.010Z,7.97
2018-04-29T02:38:44.996Z,7.97
2018-04-29T02:39:44.977Z,7.97
2018-04-29T02:40:46.028Z,7.97
2018-04-29T02:41:44.920Z,7.97
2018-04-29T02:42:44.976Z,7.96
2018-04-29T02:43:44.889Z,7.97
2018-04-29T02:44:44.889Z,7.97
2018-04-29T02:45:44.823Z,7.97
2018-04-29T02:46:44.912Z,7.97
2018-04-29T02:47:44.748Z,7.96
2018-04-29T02:48:44.850Z,7.97
2018-04-29T02:49:44.705Z,7.96
2018-04-29T02:50:46.785Z,7.97
2018-04-29T02:51:44.646Z,7.97
2018-04-29T02:52:44.761Z,7.97
2018-04-29T02:53:44.603Z,7.97
2018-04-29T02:54:45.682Z,7.96
2018-04-29T02:55:44.554Z,7.96
2018-04-29T02:56:44.559Z,7.96
2018-04-29T02:57:44.516Z,7.97
2018-04-29T02:58:44.546Z,7.96
2018-04-29T02:59:44.461Z,7.96
2018-04-29T03:00:44.523Z,7.96
2018-04-29T03:01:44.403Z,7.97
2018-04-29T03:02:44.443Z,7.96
2018-04-29T03:03:44.361Z,7.96
2018-04-29T03:04:44.474Z,7.96
2018-04-29T03:05:44.305Z,7.96
2018-04-29T03:06:46.350Z,7.96
2018-04-29T03:07:44.290Z,7.96
2018-04-29T03:08:44.287Z,7.96
2018-04-29T03:09:44.203Z,7.97
2018-04-29T03:10:44.279Z,7.96
2018-04-29T03:11:44.152Z,7.96
2018-04-29T03:12:44.187Z,7.96
2018-04-29T03:13:44.166Z,7.96
2018-04-29T03:14:44.087Z,7.96
2018-04-29T03:15:44.057Z,7.96
2018-04-29T03:16:44.102Z,7.96
2018-04-29T03:17:43.990Z,7.96
2018-04-29T03:18:44.040Z,7.96
2018-04-29T03:19:43.977Z,7.96
2018-04-29T03:20:43.931Z,7.96
2018-04-29T03:21:43.932Z,7.96
2018-04-29T03:22:43.981Z,7.96
2018-04-29T03:23:43.881Z,7.96
2018-04-29T03:24:43.855Z,7.96
2018-04-29T03:25:43.802Z,7.96
2018-04-29T03:26:43.868Z,7.96
2018-04-29T03:27:43.771Z,7.96
2018-04-29T03:28:43.800Z,7.96
2018-04-29T03:29:43.703Z,7.96
2018-04-29T03:30:43.712Z,7.96
2018-04-29T03:31:43.695Z,7.96
2018-04-29T03:32:43.712Z,7.96
2018-04-29T03:33:43.608Z,7.96
2018-04-29T03:34:43.620Z,7.96
2018-04-29T03:35:43.569Z,7.96
2018-04-29T03:36:43.540Z,7.96
2018-04-29T03:37:43.493Z,7.96
2018-04-29T03:38:43.552Z,7.96
2018-04-29T03:39:43.450Z,7.96
2018-04-29T03:40:43.498Z,7.96
2018-04-29T03:41:43.407Z,7.96
2018-04-29T03:42:43.478Z,7.96
2018-04-29T03:43:43.350Z,7.96
2018-04-29T03:44:43.381Z,7.96
2018-04-29T03:45:43.308Z,7.96
2018-04-29T03:46:43.289Z,7.96
2018-04-29T03:47:43.236Z,7.96
2018-04-29T03:48:43.347Z,7.96
2018-04-29T03:49:43.193Z,7.96
2018-04-29T03:50:44.253Z,7.96
2018-04-29T03:51:43.172Z,7.96
2018-04-29T03:52:43.122Z,7.96
2018-04-29T03:53:43.117Z,7.96
2018-04-29T03:54:48.219Z,7.96
2018-04-29T03:55:43.059Z,7.95
2018-04-29T03:56:43.058Z,7.95
2018-04-29T03:57:43.020Z,7.96
2018-04-29T03:58:44.027Z,7.96
2018-04-29T03:59:42.946Z,7.96
2018-04-29T04:00:42.983Z,7.96
2018-04-29T04:01:51.282Z,7.96
2018-04-29T04:02:42.976Z,7.96
2018-04-29T04:03:42.853Z,7.96
2018-04-29T04:04:42.918Z,7.95
2018-04-29T04:05:42.806Z,7.96
2018-04-29T04:06:42.791Z,7.96
2018-04-29T04:07:42.740Z,7.96
2018-04-29T04:08:42.838Z,7.96
2018-04-29T04:09:42.789Z,7.96
2018-04-29T04:10:42.714Z,7.96
2018-04-29T04:11:42.637Z,7.96
2018-04-29T04:12:42.628Z,7.96
2018-04-29T04:13:42.596Z,7.96
2018-04-29T04:14:42.646Z,7.96
2018-04-29T04:15:42.539Z,7.96
2018-04-29T04:16:42.550Z,7.96
2018-04-29T04:17:42.485Z,7.96
2018-04-29T04:18:42.600Z,7.96
2018-04-29T04:19:42.440Z,7.95
2018-04-29T04:20:47.101Z,7.96
2018-04-29T04:21:42.373Z,7.96
2018-04-29T04:22:42.385Z,7.96
2018-04-29T04:23:42.353Z,7.95
2018-04-29T04:24:42.415Z,7.96
2018-04-29T04:25:42.288Z,7.96
2018-04-29T04:26:43.068Z,7.96
2018-04-29T04:27:42.234Z,7.96
2018-04-29T04:28:42.230Z,7.96
2018-04-29T04:29:42.190Z,7.96
2018-04-29T04:30:43.259Z,7.96
2018-04-29T04:31:42.145Z,7.96
2018-04-29T04:32:42.145Z,7.96
2018-04-29T04:33:42.089Z,7.96
2018-04-29T04:34:42.165Z,7.96
2018-04-29T04:35:42.030Z,7.96
2018-04-29T04:36:44.128Z,7.96
2018-04-29T04:37:41.967Z,7.96
2018-04-29T04:38:42.970Z,7.96
2018-04-29T04:39:41.921Z,7.96
2018-04-29T04:40:41.977Z,7.96
2018-04-29T04:41:41.885Z,7.96
2018-04-29T04:42:42.889Z,7.96
2018-04-29T04:43:41.848Z,7.96
2018-04-29T04:44:42.903Z,7.96
2018-04-29T04:45:41.793Z,7.96
2018-04-29T04:46:41.773Z,7.96
2018-04-29T04:47:41.721Z,7.96
2018-04-29T04:48:41.849Z,7.96
2018-04-29T04:49:41.669Z,7.96
2018-04-29T04:50:42.747Z,7.96
2018-04-29T04:51:41.650Z,7.96
2018-04-29T04:52:42.643Z,7.96
2018-04-29T04:53:41.573Z,7.96
2018-04-29T04:54:41.633Z,7.96
2018-04-29T04:55:41.529Z,7.96
2018-04-29T04:56:41.561Z,7.96
2018-04-29T04:57:41.503Z,7.96
2018-04-29T04:58:41.557Z,7.96
2018-04-29T04:59:41.428Z,7.96
2018-04-29T05:00:41.473Z,7.96
2018-04-29T05:01:41.393Z,7.96
2018-04-29T05:02:46.199Z,7.96
2018-04-29T05:03:41.346Z,7.96
2018-04-29T05:04:41.393Z,7.96
2018-04-29T05:05:41.275Z,7.96
2018-04-29T05:06:42.327Z,7.96
2018-04-29T05:07:41.228Z,7.96
2018-04-29T05:08:46.144Z,7.96
2018-04-29T05:09:41.181Z,7.96
2018-04-29T05:10:42.271Z,7.96
2018-04-29T05:11:41.117Z,7.96
2018-04-29T05:12:41.151Z,7.96
2018-04-29T05:13:41.119Z,7.96
2018-04-29T05:14:43.132Z,7.96
2018-04-29T05:15:41.015Z,7.96
2018-04-29T05:16:41.059Z,7.96
2018-04-29T05:17:41.006Z,7.96
2018-04-29T05:18:40.969Z,7.96
2018-04-29T05:19:40.924Z,7.96
2018-04-29T05:20:40.988Z,7.96
2018-04-29T05:21:40.868Z,7.97
2018-04-29T05:22:40.938Z,7.97
2018-04-29T05:23:40.822Z,7.97
2018-04-29T05:24:40.807Z,7.96
2018-04-29T05:25:40.764Z,7.96
2018-04-29T05:26:46.656Z,7.97
2018-04-29T05:27:40.735Z,7.97
2018-04-29T05:28:40.738Z,7.97
2018-04-29T05:29:40.674Z,7.97
2018-04-29T05:30:41.766Z,7.97
2018-04-29T05:31:40.602Z,7.97
2018-04-29T05:32:40.667Z,7.97
2018-04-29T05:33:40.570Z,7.97
2018-04-29T05:34:40.559Z,7.97
2018-04-29T05:35:40.491Z,7.98
2018-04-29T05:36:40.562Z,7.98
2018-04-29T05:37:40.447Z,7.97
2018-04-29T05:38:40.480Z,7.97
2018-04-29T05:39:40.408Z,7.97
2018-04-29T05:40:42.440Z,7.97
2018-04-29T05:41:40.378Z,7.97
2018-04-29T05:42:41.417Z,7.97
2018-04-29T05:43:40.309Z,7.97
2018-04-29T05:44:40.312Z,7.98
2018-04-29T05:45:40.251Z,7.98
2018-04-29T05:46:40.338Z,7.97
2018-04-29T05:47:40.207Z,7.98
2018-04-29T05:48:40.253Z,7.98
2018-04-29T05:49:40.133Z,7.98
2018-04-29T05:50:40.136Z,7.98
2018-04-29T05:51:40.118Z,7.98
2018-04-29T05:52:40.154Z,7.98
2018-04-29T05:53:40.031Z,7.98
2018-04-29T05:54:40.081Z,7.98
2018-04-29T05:55:40.010Z,7.98
2018-04-29T05:56:41.026Z,7.98
2018-04-29T05:57:39.944Z,7.98
2018-04-29T05:58:41.943Z,7.99
2018-04-29T05:59:39.899Z,7.98
2018-04-29T06:00:44.609Z,7.98
2018-04-29T06:01:39.840Z,7.98
2018-04-29T06:02:39.933Z,7.98
2018-04-29T06:03:39.793Z,7.98
2018-04-29T06:04:41.801Z,7.99
2018-04-29T06:05:39.743Z,7.99
2018-04-29T06:06:39.861Z,7.99
2018-04-29T06:07:39.693Z,7.99
2018-04-29T06:08:39.784Z,7.99
2018-04-29T06:09:39.634Z,7.99
2018-04-29T06:10:40.710Z,7.99
2018-04-29T06:11:39.583Z,7.99
2018-04-29T06:12:39.578Z,7.99
2018-04-29T06:13:39.529Z,7.99
2018-04-29T06:14:39.599Z,7.99
2018-04-29T06:15:39.479Z,7.99
2018-04-29T06:16:40.540Z,7.99
2018-04-29T06:17:39.430Z,7.99
2018-04-29T06:18:39.513Z,7.99
2018-04-29T06:19:39.372Z,7.99
2018-04-29T06:20:39.409Z,8.00
2018-04-29T06:21:39.322Z,7.99
2018-04-29T06:22:41.378Z,7.99
2018-04-29T06:23:39.265Z,7.99
2018-04-29T06:24:39.298Z,7.99
2018-04-29T06:25:39.215Z,7.99
2018-04-29T06:26:39.215Z,7.99
2018-04-29T06:27:39.180Z,7.99
2018-04-29T06:28:39.221Z,8.00
2018-04-29T06:29:39.110Z,7.99
2018-04-29T06:30:39.131Z,8.00
2018-04-29T06:31:39.068Z,8.00
2018-04-29T06:32:40.073Z,8.00
2018-04-29T06:33:39.025Z,8.00
2018-04-29T06:34:39.073Z,8.00
2018-04-29T06:35:38.976Z,8.00
2018-04-29T06:36:38.966Z,8.00
2018-04-29T06:37:38.907Z,8.00
2018-04-29T06:38:38.985Z,8.00
2018-04-29T06:39:38.861Z,8.00
2018-04-29T06:40:38.834Z,8.00
2018-04-29T06:41:38.827Z,8.00
2018-04-29T06:42:39.801Z,8.00
2018-04-29T06:43:38.758Z,8.00
2018-04-29T06:44:39.735Z,8.00
2018-04-29T06:45:38.714Z,8.00
2018-04-29T06:46:38.698Z,8.00
2018-04-29T06:47:38.657Z,8.00
2018-04-29T06:48:38.629Z,8.00
2018-04-29T06:49:38.612Z,8.00
2018-04-29T06:50:38.595Z,8.00
2018-04-29T06:51:38.574Z,8.00
2018-04-29T06:52:38.526Z,8.00
2018-04-29T06:53:38.505Z,8.00
2018-04-29T06:54:38.482Z,8.00
2018-04-29T06:55:38.442Z,8.00
2018-04-29T06:56:44.111Z,8.00
2018-04-29T06:57:38.403Z,8.00
2018-04-29T06:58:38.376Z,8.00
2018-04-29T06:59:38.358Z,8.00
2018-04-29T07:00:38.316Z,8.00
2018-04-29T07:01:38.302Z,8.01
2018-04-29T07:02:38.324Z,8.00
2018-04-29T07:03:38.244Z,8.01
2018-04-29T07:04:38.230Z,8.00
2018-04-29T07:05:38.200Z,8.01
2018-04-29T07:06:38.193Z,8.00
2018-04-29T07:07:38.138Z,8.01
2018-04-29T07:08:38.134Z,8.01
2018-04-29T07:09:38.100Z,8.00
2018-04-29T07:10:38.072Z,8.01
2018-04-29T07:11:38.038Z,8.01
2018-04-29T07:12:38.044Z,8.01
2018-04-29T07:13:37.988Z,8.01
2018-04-29T07:14:37.981Z,8.01
2018-04-29T07:15:37.942Z,8.01
2018-04-29T07:16:37.953Z,8.01
2018-04-29T07:17:37.885Z,8.01
2018-04-29T07:18:38.055Z,8.01
2018-04-29T07:19:37.842Z,8.01
2018-04-29T07:20:38.879Z,8.02
2018-04-29T07:21:37.792Z,8.02
2018-04-29T07:22:37.874Z,8.01
2018-04-29T07:23:37.743Z,8.02
2018-04-29T07:24:38.801Z,8.02
2018-04-29T07:25:37.688Z,8.02
2018-04-29T07:26:37.673Z,8.02
2018-04-29T07:27:37.634Z,8.02
2018-04-29T07:28:37.769Z,8.02
2018-04-29T07:29:37.575Z,8.02
2018-04-29T07:30:37.599Z,8.02
2018-04-29T07:31:37.539Z,8.02
2018-04-29T07:32:37.612Z,8.02
2018-04-29T07:33:37.480Z,8.02
2018-04-29T07:34:37.519Z,8.02
2018-04-29T07:35:37.427Z,8.02
2018-04-29T07:36:38.448Z,8.01
2018-04-29T07:37:37.389Z,8.02
2018-04-29T07:38:37.342Z,8.02
2018-04-29T07:39:37.325Z,8.02
2018-04-29T07:40:37.356Z,8.02
2018-04-29T07:41:37.286Z,8.02
2018-04-29T07:42:37.267Z,8.02
2018-04-29T07:43:37.221Z,8.02
2018-04-29T07:44:37.202Z,8.01
2018-04-29T07:45:37.190Z,8.01
2018-04-29T07:46:37.193Z,8.02
2018-04-29T07:47:37.121Z,8.01
2018-04-29T07:48:37.094Z,8.01
2018-04-29T07:49:37.130Z,8.01
2018-04-29T07:50:37.047Z,8.01
2018-04-29T07:51:37.127Z,8.01
2018-04-29T07:52:37.032Z,8.01
2018-04-29T07:53:37.039Z,8.02
2018-04-29T07:54:36.948Z,8.02
2018-04-29T07:55:36.928Z,8.02
2018-04-29T07:56:36.945Z,8.01
2018-04-29T07:57:36.867Z,8.01
2018-04-29T07:58:38.909Z,8.01
2018-04-29T07:59:36.825Z,8.01
2018-04-29T08:00:36.876Z,8.01
2018-04-29T08:01:36.762Z,8.01
2018-04-29T08:02:36.732Z,8.01
2018-04-29T08:03:36.821Z,8.01
2018-04-29T08:04:36.687Z,8.01
2018-04-29T08:05:38.760Z,8.01
2018-04-29T08:06:36.625Z,8.01
2018-04-29T08:07:36.660Z,8.01
2018-04-29T08:08:36.613Z,8.01
2018-04-29T08:09:37.656Z,8.01
2018-04-29T08:10:36.534Z,8.01
2018-04-29T08:11:36.547Z,8.01
2018-04-29T08:12:36.472Z,8.01
2018-04-29T08:13:36.559Z,8.01
2018-04-29T08:14:36.428Z,8.01
2018-04-29T08:15:36.574Z,8.01
2018-04-29T08:16:36.379Z,8.01
2018-04-29T08:17:36.441Z,8.01
2018-04-29T08:18:36.323Z,8.01
2018-04-29T08:19:36.399Z,8.01
2018-04-29T08:20:36.284Z,8.01
2018-04-29T08:21:37.327Z,8.01
2018-04-29T08:22:36.300Z,8.01
2018-04-29T08:23:36.367Z,8.01
2018-04-29T08:24:36.170Z,8.01
2018-04-29T08:25:36.258Z,8.01
2018-04-29T08:26:36.119Z,8.01
2018-04-29T08:27:36.144Z,8.01
2018-04-29T08:28:36.074Z,8.01
2018-04-29T08:29:36.069Z,8.01
2018-04-29T08:30:36.063Z,8.01
2018-04-29T08:31:35.984Z,8.01
2018-04-29T08:32:36.084Z,8.01
2018-04-29T08:33:35.948Z,8.01
2018-04-29T08:34:35.914Z,8.01
2018-04-29T08:35:35.888Z,8.01
2018-04-29T08:36:35.905Z,8.01
2018-04-29T08:37:35.837Z,8.01
2018-04-29T08:38:36.832Z,8.01
2018-04-29T08:39:35.792Z,8.01
2018-04-29T08:40:35.820Z,8.01
2018-04-29T08:41:35.743Z,8.01
2018-04-29T08:42:35.743Z,8.01
2018-04-29T08:43:35.705Z,8.01
2018-04-29T08:44:35.769Z,8.01
2018-04-29T08:45:35.664Z,8.01
2018-04-29T08:46:35.671Z,8.01
2018-04-29T08:47:35.591Z,8.02
2018-04-29T08:48:35.710Z,8.02
2018-04-29T08:49:35.538Z,8.02
2018-04-29T08:50:35.605Z,8.02
2018-04-29T08:51:35.494Z,8.02
2018-04-29T08:52:35.506Z,8.02
2018-04-29T08:53:35.448Z,8.02
2018-04-29T08:54:35.528Z,8.02
2018-04-29T08:55:35.377Z,8.02
2018-04-29T08:56:35.366Z,8.02
2018-04-29T08:57:36.354Z,8.02
2018-04-29T08:58:35.310Z,8.02
2018-04-29T08:59:35.341Z,8.02
2018-04-29T09:00:35.261Z,8.02
2018-04-29T09:01:35.253Z,8.02
2018-04-29T09:02:35.274Z,8.02
2018-04-29T09:03:35.303Z,8.02
2018-04-29T09:04:35.185Z,8.02
2018-04-29T09:05:35.182Z,8.02
2018-04-29T09:06:35.120Z,8.02
2018-04-29T09:07:35.206Z,8.02
2018-04-29T09:08:35.057Z,8.02
2018-04-29T09:09:37.050Z,8.02
2018-04-29T09:10:35.019Z,8.02
2018-04-29T09:11:35.034Z,8.02
2018-04-29T09:12:35.045Z,8.02
2018-04-29T09:13:35.952Z,8.02
2018-04-29T09:14:34.899Z,8.02
2018-04-29T09:15:34.944Z,8.01
2018-04-29T09:16:34.867Z,8.01
2018-04-29T09:17:34.905Z,8.01
2018-04-29T09:18:34.799Z,8.02
2018-04-29T09:19:34.895Z,8.01
2018-04-29T09:20:34.755Z,8.02
2018-04-29T09:21:34.801Z,8.01
2018-04-29T09:22:34.739Z,8.01
2018-04-29T09:23:34.687Z,8.02
2018-04-29T09:24:34.641Z,8.02
2018-04-29T09:25:34.699Z,8.02
2018-04-29T09:26:34.613Z,8.02
2018-04-29T09:27:34.574Z,8.02
2018-04-29T09:28:34.625Z,8.02
2018-04-29T09:29:34.521Z,8.03
2018-04-29T09:30:34.536Z,8.02
2018-04-29T09:31:34.454Z,8.02
2018-04-29T09:32:34.570Z,8.02
2018-04-29T09:33:34.450Z,8.02
2018-04-29T09:34:34.396Z,8.02
2018-04-29T09:35:34.385Z,8.02
2018-04-29T09:36:34.340Z,8.02
2018-04-29T09:37:34.315Z,8.02
2018-04-29T09:38:34.375Z,8.02
2018-04-29T09:39:34.257Z,8.02
2018-04-29T09:40:34.250Z,8.02
2018-04-29T09:41:34.212Z,8.01
2018-04-29T09:42:34.198Z,8.01
2018-04-29T09:43:34.220Z,8.01
2018-04-29T09:44:34.132Z,8.02
2018-04-29T09:45:34.114Z,8.02
2018-04-29T09:46:34.085Z,8.01
2018-04-29T09:47:34.080Z,8.01
2018-04-29T09:48:34.079Z,8.01
2018-04-29T09:49:34.036Z,8.02
2018-04-29T09:50:33.998Z,8.01
2018-04-29T09:51:33.979Z,8.01
2018-04-29T09:52:33.973Z,8.02
2018-04-29T09:53:33.944Z,8.01
2018-04-29T09:54:33.991Z,8.01
2018-04-29T09:55:33.856Z,8.02
2018-04-29T09:56:33.891Z,8.02
2018-04-29T09:57:33.801Z,8.01
2018-04-29T09:58:33.793Z,8.02
2018-04-29T09:59:33.821Z,8.02
2018-04-29T10:00:33.746Z,8.01
2018-04-29T10:01:33.828Z,8.02
2018-04-29T10:02:33.684Z,8.02
2018-04-29T10:03:33.797Z,8.02
2018-04-29T10:04:33.643Z,8.02
2018-04-29T10:05:34.684Z,8.02
2018-04-29T10:06:33.602Z,8.02
2018-04-29T10:07:34.576Z,8.02
2018-04-29T10:08:33.532Z,8.03
2018-04-29T10:09:33.625Z,8.02
2018-04-29T10:10:33.481Z,8.02
2018-04-29T10:11:33.496Z,8.02
2018-04-29T10:12:33.418Z,8.02
2018-04-29T10:13:35.485Z,8.02
2018-04-29T10:14:33.377Z,8.02
2018-04-29T10:15:33.366Z,8.02
2018-04-29T10:16:33.368Z,8.02
2018-04-29T10:17:33.310Z,8.02
2018-04-29T10:18:33.308Z,8.03
2018-04-29T10:19:33.327Z,8.03
2018-04-29T10:20:33.250Z,8.02
2018-04-29T10:21:33.203Z,8.02
2018-04-29T10:22:33.174Z,8.02
2018-04-29T10:23:33.291Z,8.02
2018-04-29T10:24:33.147Z,8.03
2018-04-29T10:25:33.092Z,8.02
2018-04-29T10:26:33.083Z,8.03
2018-04-29T10:27:33.044Z,8.03
2018-04-29T10:28:33.027Z,8.02
2018-04-29T10:29:33.025Z,8.03
2018-04-29T10:30:32.975Z,8.03
2018-04-29T10:31:32.940Z,8.03
2018-04-29T10:32:32.913Z,8.03
2018-04-29T10:33:32.908Z,8.03
2018-04-29T10:34:32.858Z,8.04
2018-04-29T10:35:33.967Z,8.03
2018-04-29T10:36:32.821Z,8.03
2018-04-29T10:37:32.842Z,8.03
2018-04-29T10:38:32.757Z,8.03
2018-04-29T10:39:32.853Z,8.03
2018-04-29T10:40:32.735Z,8.03
2018-04-29T10:41:33.813Z,8.03
2018-04-29T10:42:32.666Z,8.03
2018-04-29T10:43:32.698Z,8.04
2018-04-29T10:44:32.684Z,8.04
2018-04-29T10:45:32.587Z,8.04
2018-04-29T10:46:32.566Z,8.04
2018-04-29T10:47:32.534Z,8.04
2018-04-29T10:48:32.508Z,8.04
2018-04-29T10:49:32.484Z,8.04
2018-04-29T10:50:32.453Z,8.03
2018-04-29T10:51:32.448Z,8.04
2018-04-29T10:52:32.445Z,8.04
2018-04-29T10:53:32.381Z,8.04
2018-04-29T10:54:32.360Z,8.03
2018-04-29T10:55:32.345Z,8.03
2018-04-29T10:56:32.418Z,8.04
2018-04-29T10:57:32.273Z,8.04
2018-04-29T10:58:32.278Z,8.04
2018-04-29T10:59:32.273Z,8.04
2018-04-29T11:00:32.207Z,8.04
2018-04-29T11:01:32.178Z,8.04
2018-04-29T11:02:32.193Z,8.04
2018-04-29T11:03:32.300Z,8.04
2018-04-29T11:04:32.130Z,8.04
2018-04-29T11:05:32.201Z,8.03
2018-04-29T11:06:32.064Z,8.04
2018-04-29T11:07:32.259Z,8.04
2018-04-29T11:08:32.014Z,8.04
2018-04-29T11:09:32.141Z,8.04
2018-04-29T11:10:31.979Z,8.04
2018-04-29T11:11:33.061Z,8.04
2018-04-29T11:12:31.921Z,8.04
2018-04-29T11:13:32.066Z,8.04
2018-04-29T11:14:31.854Z,8.04
2018-04-29T11:15:31.960Z,8.05
2018-04-29T11:16:31.807Z,8.05
2018-04-29T11:17:31.782Z,8.05
2018-04-29T11:18:31.884Z,8.05
2018-04-29T11:19:31.753Z,8.05
2018-04-29T11:20:31.903Z,8.05
2018-04-29T11:21:31.677Z,8.05
2018-04-29T11:22:31.810Z,8.05
2018-04-29T11:23:31.628Z,8.05
2018-04-29T11:24:31.736Z,8.05
2018-04-29T11:25:31.596Z,8.05
2018-04-29T11:26:32.804Z,8.05
2018-04-29T11:27:31.595Z,8.05
2018-04-29T11:28:31.673Z,8.05
2018-04-29T11:29:31.524Z,8.05
2018-04-29T11:30:31.676Z,8.05
2018-04-29T11:31:31.482Z,8.05
2018-04-29T11:32:31.610Z,8.05
2018-04-29T11:33:31.407Z,8.05
2018-04-29T11:34:31.538Z,8.05
2018-04-29T11:35:31.338Z,8.05
2018-04-29T11:36:31.538Z,8.05
2018-04-29T11:37:31.280Z,8.05
2018-04-29T11:38:31.418Z,8.05
2018-04-29T11:39:31.244Z,8.05
2018-04-29T11:40:31.493Z,8.05
2018-04-29T11:41:31.196Z,8.05
2018-04-29T11:42:31.149Z,8.05
2018-04-29T11:43:31.334Z,8.05
2018-04-29T11:44:31.111Z,8.05
2018-04-29T11:45:31.247Z,8.05
2018-04-29T11:46:31.070Z,8.05
2018-04-29T11:47:31.165Z,8.05
2018-04-29T11:48:31.037Z,8.05
2018-04-29T11:49:31.190Z,8.05
2018-04-29T11:50:30.956Z,8.05
2018-04-29T11:51:31.090Z,8.05
2018-04-29T11:52:30.957Z,8.05
2018-04-29T11:53:31.113Z,8.06
2018-04-29T11:54:30.864Z,8.05
2018-04-29T11:55:31.030Z,8.05
2018-04-29T11:56:30.818Z,8.06
2018-04-29T11:57:30.920Z,8.06
2018-04-29T11:58:30.766Z,8.06
2018-04-29T11:59:30.935Z,8.06
2018-04-29T12:00:30.731Z,8.06
2018-04-29T12:01:30.846Z,8.06
2018-04-29T12:02:30.764Z,8.06
2018-04-29T12:03:30.781Z,8.06
2018-04-29T12:04:30.620Z,8.06
2018-04-29T12:05:30.667Z,8.06
2018-04-29T12:06:30.619Z,8.08
2018-04-29T12:07:31.610Z,8.06
2018-04-29T12:08:30.592Z,8.06
2018-04-29T12:09:30.597Z,8.08
2018-04-29T12:10:30.473Z,8.08
2018-04-29T12:11:30.524Z,8.06
2018-04-29T12:12:30.450Z,8.06
2018-04-29T12:13:30.418Z,8.08
2018-04-29T12:14:30.371Z,8.08
2018-04-29T12:15:30.369Z,8.08
2018-04-29T12:16:30.327Z,8.08
2018-04-29T12:17:30.391Z,8.08
2018-04-29T12:18:30.353Z,8.08
2018-04-29T12:19:30.288Z,8.06
2018-04-29T12:20:30.245Z,8.06
2018-04-29T12:21:30.204Z,8.06
2018-04-29T12:22:30.276Z,8.06
2018-04-29T12:23:30.184Z,8.06
2018-04-29T12:24:30.251Z,8.08
2018-04-29T12:25:30.233Z,8.06
2018-04-29T12:26:30.095Z,8.06
2018-04-29T12:27:30.104Z,8.06
2018-04-29T12:28:30.025Z,8.08
2018-04-29T12:29:30.175Z,8.08
2018-04-29T12:30:29.969Z,8.08
2018-04-29T12:31:30.041Z,8.08
2018-04-29T12:32:29.940Z,8.08
2018-04-29T12:33:29.940Z,8.08
2018-04-29T12:34:29.891Z,8.08
2018-04-29T12:35:30.974Z,8.08
2018-04-29T12:36:29.834Z,8.08
2018-04-29T12:37:29.855Z,8.08
2018-04-29T12:38:29.782Z,8.08
2018-04-29T12:39:30.817Z,8.08
2018-04-29T12:40:29.771Z,8.08
2018-04-29T12:41:29.806Z,8.08
2018-04-29T12:42:29.715Z,8.08
2018-04-29T12:43:29.723Z,8.08
2018-04-29T12:44:29.670Z,8.06
2018-04-29T12:45:30.772Z,8.06
2018-04-29T12:46:29.599Z,8.06
2018-04-29T12:47:29.637Z,8.08
2018-04-29T12:48:29.567Z,8.08
2018-04-29T12:49:29.521Z,8.08
2018-04-29T12:50:29.497Z,8.06
2018-04-29T12:51:29.674Z,8.08
2018-04-29T12:52:29.463Z,8.06
2018-04-29T12:53:29.466Z,8.06
2018-04-29T12:54:29.423Z,8.08
2018-04-29T12:55:29.468Z,8.08
2018-04-29T12:56:29.338Z,8.08
2018-04-29T12:57:30.417Z,8.08
2018-04-29T12:58:29.323Z,8.08
2018-04-29T12:59:29.415Z,8.08
2018-04-29T13:00:29.256Z,8.08
2018-04-29T13:01:29.342Z,8.08
2018-04-29T13:02:29.235Z,8.08
2018-04-29T13:03:29.331Z,8.08
2018-04-29T13:04:29.153Z,8.08
2018-04-29T13:05:29.245Z,8.08
2018-04-29T13:06:29.113Z,8.06
2018-04-29T13:07:29.144Z,8.08
2018-04-29T13:08:29.057Z,8.08
2018-04-29T13:09:29.191Z,8.08
2018-04-29T13:10:29.035Z,8.08
2018-04-29T13:11:29.075Z,8.08
2018-04-29T13:12:28.959Z,8.08
2018-04-29T13:13:29.003Z,8.08
2018-04-29T13:14:28.981Z,8.09
2018-04-29T13:15:28.897Z,8.09
2018-04-29T13:16:29.030Z,8.09
2018-04-29T13:17:28.854Z,8.09
2018-04-29T13:18:28.964Z,8.09